Time;durP1;ratioP1;P1;durP2;ratioP2;P2;SDS_P1;SDS_P2;PMS_P1;PMS_P2;Temp;Humidity;BMP_temperature;BMP_pressure;BME280_temperature;BME280_humidity;BME280_pressure;Samples;Min_cycle;Max_cycle;Signal;HPM_P1;HPM_P2
2022/05/25 00:01:04;;;;;;;2.60;2.40;;;13.70;32.40;;;;;;5014895;28;20226;-69
2022/05/25 00:03:32;;;;;;;2.77;2.57;;;13.70;32.10;;;;;;5014490;28;20232;-67
2022/05/25 00:05:59;;;;;;;2.27;2.07;;;13.80;31.90;;;;;;5014851;28;20476;-66
2022/05/25 00:08:25;;;;;;;2.87;2.23;;;13.80;31.70;;;;;;5014551;28;20458;-67
2022/05/25 00:10:51;;;;;;;2.40;2.20;;;13.80;31.90;;;;;;5014650;28;20465;-68
2022/05/25 00:13:17;;;;;;;2.47;2.27;;;13.90;31.80;;;;;;5014349;28;20912;-68
2022/05/25 00:15:42;;;;;;;2.50;2.30;;;13.90;31.50;;;;;;5014673;28;20527;-66
2022/05/25 00:18:08;;;;;;;2.67;2.47;;;13.90;31.70;;;;;;5014301;28;20210;-67
2022/05/25 00:20:35;;;;;;;3.23;2.37;;;13.90;31.80;;;;;;5014510;28;20189;-67
2022/05/25 00:23:01;;;;;;;2.50;2.30;;;13.90;31.80;;;;;;5013581;28;20416;-66
2022/05/25 00:25:36;;;;;;;2.50;2.30;;;13.90;31.70;;;;;;5014050;28;20424;-67
2022/05/25 00:28:07;;;;;;;2.40;2.20;;;13.90;31.70;;;;;;5014470;28;20456;-68
2022/05/25 00:30:34;;;;;;;2.37;2.17;;;13.90;31.90;;;;;;5014579;28;20978;-68
2022/05/25 00:33:00;;;;;;;2.10;1.90;;;13.80;31.70;;;;;;5014185;28;20411;-67
2022/05/25 00:35:28;;;;;;;2.40;2.10;;;13.80;32.20;;;;;;5014151;28;20419;-68
2022/05/25 00:37:54;;;;;;;2.60;2.40;;;13.70;32.20;;;;;;5014150;28;20444;-67
2022/05/25 00:40:26;;;;;;;2.33;2.07;;;13.80;32.20;;;;;;5014188;28;20414;-68
2022/05/25 00:42:52;;;;;;;1.97;1.77;;;13.80;32.40;;;;;;5013708;28;20673;-67
2022/05/25 00:45:18;;;;;;;2.40;1.90;;;13.80;32.40;;;;;;5014001;28;20415;-69
2022/05/25 00:47:47;;;;;;;1.90;1.80;;;13.90;32.30;;;;;;5012486;28;20213;-69
2022/05/25 00:50:15;;;;;;;2.53;1.87;;;13.90;32.20;;;;;;5013846;28;20417;-67
2022/05/25 00:52:42;;;;;;;2.33;2.13;;;13.90;32.30;;;;;;5013547;28;20424;-67
2022/05/25 00:55:11;;;;;;;3.10;2.70;;;13.90;33.20;;;;;;5013919;28;20409;-68
2022/05/25 00:57:43;;;;;;;2.00;1.83;;;14.00;32.20;;;;;;5013659;28;20628;-67
2022/05/25 01:00:09;;;;;;;3.07;2.30;;;13.90;32.60;;;;;;5013962;28;20424;-67
2022/05/25 01:02:38;;;;;;;2.20;2.00;;;13.90;32.90;;;;;;5013381;28;20773;-67
2022/05/25 01:05:04;;;;;;;5.30;2.43;;;13.90;33.70;;;;;;5012358;28;20178;-67
2022/05/25 01:08:15;;;;;;;2.13;1.93;;;13.90;33.20;;;;;;5012259;28;20450;-67
2022/05/25 01:10:50;;;;;;;3.40;2.20;;;13.90;32.90;;;;;;5013497;28;20427;-68
2022/05/25 01:13:53;;;;;;;2.20;2.00;;;13.90;32.80;;;;;;5013175;28;20408;-67
2022/05/25 01:16:28;;;;;;;2.23;2.03;;;14.00;32.00;;;;;;5013436;28;20404;-69
2022/05/25 01:19:28;;;;;;;3.30;2.03;;;14.00;31.40;;;;;;5013460;28;20427;-67
2022/05/25 01:21:58;;;;;;;2.13;1.93;;;13.90;31.60;;;;;;5013055;28;20422;-67
2022/05/25 01:24:30;;;;;;;3.33;2.53;;;13.90;31.80;;;;;;5013417;28;20404;-67
2022/05/25 01:27:22;;;;;;;2.43;2.10;;;14.00;32.00;;;;;;5013197;28;20403;-67
2022/05/25 01:30:08;;;;;;;2.20;2.00;;;14.00;32.20;;;;;;5013139;28;20494;-68
2022/05/25 01:32:48;;;;;;;1.90;1.70;;;13.90;32.30;;;;;;5012632;28;20502;-69
2022/05/25 01:35:31;;;;;;;2.10;1.90;;;14.00;32.30;;;;;;5012944;28;20755;-66
2022/05/25 01:38:26;;;;;;;2.50;1.80;;;14.10;31.60;;;;;;5012975;28;20432;-67
2022/05/25 01:40:54;;;;;;;2.60;2.17;;;14.00;31.90;;;;;;5013114;28;20443;-67
2022/05/25 01:43:57;;;;;;;2.37;2.17;;;14.00;32.30;;;;;;5012785;28;20413;-68
2022/05/25 01:46:32;;;;;;;2.00;1.90;;;14.00;32.00;;;;;;5012458;28;20849;-67
2022/05/25 01:49:02;;;;;;;1.73;1.63;;;14.00;31.90;;;;;;5013406;28;20473;-67
2022/05/25 01:51:38;;;;;;;2.37;2.17;;;14.00;32.30;;;;;;5012769;28;20489;-67
2022/05/25 01:54:07;;;;;;;2.20;2.00;;;14.10;32.00;;;;;;5012928;28;20416;-68
2022/05/25 01:56:35;;;;;;;2.53;2.07;;;14.00;32.30;;;;;;5012664;28;20537;-67
2022/05/25 01:59:03;;;;;;;2.13;1.67;;;14.00;32.00;;;;;;5012471;28;20426;-67
2022/05/25 02:01:30;;;;;;;2.37;2.17;;;14.00;32.20;;;;;;5012304;28;20421;-67
2022/05/25 02:07:15;;;;;;;2.03;1.83;;;13.90;31.90;;;;;;5012819;28;20410;-68
2022/05/25 02:10:02;;;;;;;2.00;1.90;;;14.00;31.80;;;;;;5012349;28;20450;-67
2022/05/25 02:13:03;;;;;;;3.23;2.20;;;14.10;31.80;;;;;;5012198;28;20402;-66
2022/05/25 02:15:40;;;;;;;2.10;1.90;;;14.00;31.80;;;;;;5012129;28;20418;-69
2022/05/25 02:18:10;;;;;;;2.20;2.00;;;13.90;32.40;;;;;;5011027;28;20442;-67
2022/05/25 02:20:59;;;;;;;2.10;1.90;;;13.90;32.30;;;;;;5012346;28;20410;-66
2022/05/25 02:23:49;;;;;;;2.53;2.33;;;13.90;32.50;;;;;;5012037;28;20440;-67
2022/05/25 02:26:32;;;;;;;2.70;2.07;;;14.00;31.80;;;;;;5012260;28;20762;-67
2022/05/25 02:29:05;;;;;;;2.20;2.00;;;13.90;31.20;;;;;;5012177;28;20498;-68
2022/05/25 02:31:36;;;;;;;2.80;1.80;;;13.90;31.30;;;;;;5012049;28;20400;-67
2022/05/25 02:34:05;;;;;;;1.90;1.80;;;13.90;31.30;;;;;;5012301;28;20461;-68
2022/05/25 02:36:37;;;;;;;2.40;2.20;;;13.90;31.80;;;;;;5012165;28;20473;-69
2022/05/25 02:39:09;;;;;;;3.80;2.17;;;14.00;31.20;;;;;;5012174;28;20444;-67
2022/05/25 02:41:47;;;;;;;2.30;2.10;;;14.00;31.30;;;;;;5011779;28;20450;-67
2022/05/25 02:44:13;;;;;;;2.33;2.10;;;14.00;31.30;;;;;;5012266;28;20444;-68
2022/05/25 02:46:38;;;;;;;2.13;1.83;;;14.00;31.60;;;;;;5011299;28;20448;-67
2022/05/25 02:49:04;;;;;;;2.67;2.20;;;14.00;31.30;;;;;;5011987;28;20206;-67
2022/05/25 02:51:30;;;;;;;4.40;1.93;;;14.00;31.50;;;;;;5011749;28;20180;-67
2022/05/25 02:53:55;;;;;;;2.60;2.20;;;13.90;31.50;;;;;;5012045;28;20581;-68
2022/05/25 02:56:21;;;;;;;2.27;2.07;;;13.90;31.60;;;;;;5012031;28;20176;-67
2022/05/25 02:58:46;;;;;;;2.87;2.00;;;13.90;31.10;;;;;;5011898;28;20315;-67
2022/05/25 03:01:12;;;;;;;2.03;1.83;;;14.10;30.80;;;;;;5011779;28;20235;-67
2022/05/25 03:03:38;;;;;;;2.40;2.20;;;14.00;30.80;;;;;;5011854;28;20180;-68
2022/05/25 03:06:05;;;;;;;2.77;2.30;;;14.00;31.10;;;;;;5012091;28;20180;-69
2022/05/25 03:08:32;;;;;;;1.90;1.80;;;14.00;31.20;;;;;;5011749;28;20555;-67
2022/05/25 03:10:58;;;;;;;1.80;1.70;;;14.00;31.60;;;;;;5012124;28;20409;-69
2022/05/25 03:13:23;;;;;;;2.30;2.00;;;14.00;31.30;;;;;;5011753;28;20576;-67
2022/05/25 03:15:49;;;;;;;2.70;1.80;;;14.00;31.70;;;;;;5011997;28;20670;-68
2022/05/25 03:18:15;;;;;;;2.40;2.20;;;13.80;32.40;;;;;;5011695;28;20204;-68
2022/05/25 03:20:40;;;;;;;2.03;1.93;;;13.80;32.60;;;;;;5011789;28;20921;-68
2022/05/25 03:23:06;;;;;;;2.20;2.00;;;13.80;32.40;;;;;;5011467;28;20180;-69
2022/05/25 03:25:31;;;;;;;2.20;1.97;;;13.80;32.30;;;;;;5011882;28;20177;-69
2022/05/25 03:27:57;;;;;;;1.60;1.50;;;13.80;32.10;;;;;;5011624;28;20204;-67
2022/05/25 03:30:22;;;;;;;4.47;1.70;;;13.70;32.30;;;;;;5011795;28;20174;-67
2022/05/25 03:32:48;;;;;;;1.60;1.50;;;13.80;32.90;;;;;;5011491;28;20267;-67
2022/05/25 03:35:14;;;;;;;2.17;1.80;;;13.80;32.80;;;;;;5011859;28;20173;-67
2022/05/25 03:37:40;;;;;;;2.33;1.60;;;13.80;32.70;;;;;;5011558;28;20192;-68
2022/05/25 03:40:09;;;;;;;1.87;1.63;;;13.80;32.90;;;;;;5011602;28;20426;-67
2022/05/25 03:42:36;;;;;;;2.03;1.73;;;13.70;32.70;;;;;;5011109;28;20257;-68
2022/05/25 03:45:04;;;;;;;1.93;1.60;;;13.70;32.90;;;;;;5011672;28;20808;-66
2022/05/25 03:47:30;;;;;;;2.10;1.70;;;13.70;33.30;;;;;;5011272;28;20459;-67
2022/05/25 03:49:56;;;;;;;2.30;1.77;;;13.60;33.10;;;;;;5011594;28;20426;-67
2022/05/25 03:52:22;;;;;;;1.87;1.70;;;13.60;33.70;;;;;;5011444;28;20411;-67
2022/05/25 03:54:48;;;;;;;2.07;1.87;;;13.60;33.30;;;;;;5011876;28;20653;-67
2022/05/25 03:57:14;;;;;;;3.90;2.20;;;13.60;33.50;;;;;;5011383;28;20523;-67
2022/05/25 03:59:39;;;;;;;2.10;1.90;;;13.70;33.10;;;;;;5014791;28;20416;-67
2022/05/25 04:02:05;;;;;;;1.83;1.73;;;13.70;33.20;;;;;;5014754;28;20653;-68
2022/05/25 04:04:31;;;;;;;2.67;2.30;;;13.80;33.00;;;;;;5014840;28;20180;-67
2022/05/25 04:06:57;;;;;;;2.03;1.90;;;13.70;33.00;;;;;;5014935;28;20399;-67
2022/05/25 04:09:22;;;;;;;3.57;1.53;;;13.70;33.20;;;;;;5014949;28;20199;-67
2022/05/25 04:11:49;;;;;;;3.53;1.80;;;13.70;32.90;;;;;;5014866;28;20609;-68
2022/05/25 04:14:17;;;;;;;1.60;1.43;;;13.70;32.90;;;;;;5015982;28;20175;-68
2022/05/25 04:16:44;;;;;;;2.03;1.70;;;13.80;32.90;;;;;;5015283;28;20408;-67
2022/05/25 04:19:10;;;;;;;1.67;1.33;;;13.90;32.50;;;;;;5014800;28;20444;-67
2022/05/25 04:21:35;;;;;;;1.60;1.50;;;13.80;32.80;;;;;;5014926;28;20867;-66
2022/05/25 04:24:02;;;;;;;2.90;2.30;;;13.80;32.80;;;;;;5015187;28;20176;-68
2022/05/25 04:26:30;;;;;;;3.30;2.27;;;13.80;32.90;;;;;;5014303;28;20189;-66
2022/05/25 04:28:56;;;;;;;2.37;1.40;;;13.80;33.10;;;;;;5013265;28;20871;-66
2022/05/25 04:31:22;;;;;;;2.43;2.23;;;13.80;32.90;;;;;;5014341;28;20868;-67
2022/05/25 04:33:48;;;;;;;2.13;1.93;;;13.90;32.20;;;;;;5014485;28;20494;-68
2022/05/25 04:36:14;;;;;;;3.47;2.10;;;13.80;32.30;;;;;;5014561;28;20453;-67
2022/05/25 04:38:40;;;;;;;3.67;1.83;;;13.80;32.50;;;;;;5014589;28;20200;-68
2022/05/25 04:41:05;;;;;;;2.27;2.07;;;13.70;32.80;;;;;;5014324;28;20813;-66
2022/05/25 04:43:31;;;;;;;2.80;2.37;;;13.70;32.30;;;;;;5014008;28;20183;-67
2022/05/25 04:45:59;;;;;;;2.37;2.17;;;13.70;32.20;;;;;;5014247;28;20176;-67
2022/05/25 04:48:25;;;;;;;2.03;1.83;;;13.80;32.30;;;;;;5013935;28;20282;-67
2022/05/25 04:50:52;;;;;;;2.40;2.20;;;13.80;32.00;;;;;;5014055;28;20925;-69
2022/05/25 04:53:19;;;;;;;2.00;1.80;;;13.80;31.50;;;;;;5014038;28;20415;-67
2022/05/25 04:58:37;;;;;;;3.10;2.53;;;13.90;31.70;;;;;;5014577;28;20498;-68
2022/05/25 05:01:04;;;;;;;3.47;3.00;;;14.00;31.60;;;;;;5014345;28;20927;-69
2022/05/25 05:03:30;;;;;;;2.23;1.90;;;14.10;31.20;;;;;;5013965;28;20984;-67
2022/05/25 05:05:56;;;;;;;3.50;2.23;;;14.10;31.60;;;;;;5014173;28;20502;-68
2022/05/25 05:08:22;;;;;;;7.23;2.70;;;14.10;30.90;;;;;;5013803;28;20551;-67
2022/05/25 05:10:48;;;;;;;2.30;2.10;;;14.10;30.90;;;;;;5013063;28;20858;-67
2022/05/25 05:13:14;;;;;;;3.13;2.83;;;14.20;30.20;;;;;;5013583;28;20180;-68
2022/05/25 05:15:45;;;;;;;2.70;2.50;;;14.30;29.70;;;;;;5013669;28;20424;-68
2022/05/25 05:18:10;;;;;;;3.60;3.30;;;14.50;29.80;;;;;;5013609;28;20254;-67
2022/05/25 05:20:37;;;;;;;3.30;3.00;;;14.60;29.20;;;;;;5013586;28;20528;-67
2022/05/25 05:23:04;;;;;;;4.00;3.57;;;14.70;29.10;;;;;;5013400;28;20178;-68
2022/05/25 05:25:29;;;;;;;3.93;3.60;;;14.80;27.90;;;;;;5012165;28;20486;-70
2022/05/25 05:28:15;;;;;;;4.20;3.90;;;15.00;27.80;;;;;;5012120;28;20555;-68
2022/05/25 05:30:47;;;;;;;4.80;4.40;;;15.00;27.30;;;;;;5013475;28;20525;-67
2022/05/25 05:33:12;;;;;;;3.70;3.50;;;15.20;27.20;;;;;;5013234;28;20779;-66
2022/05/25 05:35:38;;;;;;;4.17;3.87;;;15.30;26.80;;;;;;5013241;28;20424;-68
2022/05/25 05:38:04;;;;;;;6.03;5.63;;;15.40;26.30;;;;;;5013288;28;20199;-66
2022/05/25 05:40:31;;;;;;;7.70;5.90;;;15.70;26.50;;;;;;5012952;28;20828;-68
2022/05/25 05:43:01;;;;;;;5.63;5.33;;;15.90;24.80;;;;;;5012974;28;20791;-67
2022/05/25 05:45:31;;;;;;;5.77;5.47;;;16.10;24.30;;;;;;5013109;28;20860;-68
2022/05/25 05:48:07;;;;;;;6.80;6.50;;;16.30;24.30;;;;;;5013282;28;20478;-68
2022/05/25 05:50:34;;;;;;;6.60;6.30;;;16.50;23.50;;;;;;5013044;28;20514;-68
2022/05/25 05:53:00;;;;;;;6.20;5.80;;;16.70;23.00;;;;;;5012757;28;20421;-68
2022/05/25 05:55:26;;;;;;;6.97;6.63;;;18.00;24.30;;;;;;5012941;28;20513;-68
2022/05/25 05:57:53;;;;;;;10.73;10.23;;;20.00;20.90;;;;;;5012841;28;21006;-67
2022/05/25 06:00:19;;;;;;;12.10;11.70;;;22.30;17.40;;;;;;5012854;28;20502;-69
2022/05/25 06:02:44;;;;;;;14.20;13.50;;;24.60;11.50;;;;;;5012500;28;20494;-68
2022/05/25 06:05:11;;;;;;;14.13;13.43;;;26.70;8.80;;;;;;5012726;28;20232;-68
2022/05/25 06:07:37;;;;;;;14.30;13.70;;;27.80;4.50;;;;;;5012596;28;20198;-70
2022/05/25 06:10:05;;;;;;;13.73;13.20;;;27.20;3.40;;;;;;5012557;28;20413;-68
2022/05/25 06:12:32;;;;;;;13.60;13.10;;;26.30;3.80;;;;;;5012449;28;20469;-68
2022/05/25 06:14:58;;;;;;;13.60;13.00;;;25.70;5.00;;;;;;5012695;28;20595;-69
2022/05/25 06:20:09;;;;;;;12.57;12.07;;;24.90;6.00;;;;;;5015891;28;20442;-66
2022/05/25 06:22:35;;;;;;;13.00;12.50;;;25.10;6.90;;;;;;5017118;28;20951;-66
2022/05/25 06:25:01;;;;;;;12.47;12.03;;;25.80;6.50;;;;;;5017194;28;20415;-66
2022/05/25 06:27:27;;;;;;;13.77;13.00;;;26.70;4.90;;;;;;5017719;28;20493;-67
2022/05/25 06:29:53;;;;;;;13.50;13.00;;;27.50;4.00;;;;;;5016576;28;20462;-66
2022/05/25 06:32:22;;;;;;;13.53;13.03;;;28.70;2.60;;;;;;5016328;28;20175;-66
2022/05/25 06:34:49;;;;;;;13.77;13.27;;;29.20;1.00;;;;;;5016487;28;20433;-66
2022/05/25 06:37:17;;;;;;;13.73;13.23;;;29.20;1.00;;;;;;5014796;28;20507;-66
2022/05/25 06:39:43;;;;;;;13.80;13.13;;;28.30;1.00;;;;;;5015752;28;20821;-66
2022/05/25 06:42:09;;;;;;;14.37;13.77;;;24.70;1.50;;;;;;5013930;28;20438;-66
2022/05/25 06:44:35;;;;;;;13.67;13.13;;;25.20;2.70;;;;;;5014337;28;20184;-66
2022/05/25 06:47:01;;;;;;;13.17;12.67;;;25.90;1.90;;;;;;5014637;28;20600;-65
2022/05/25 06:49:27;;;;;;;13.80;13.10;;;26.40;1.70;;;;;;4997170;28;20211;-66
2022/05/25 06:51:53;;;;;;;14.43;13.73;;;26.30;2.30;;;;;;4999440;28;20841;-65
2022/05/25 06:54:19;;;;;;;13.10;12.60;;;26.10;1.30;;;;;;5001156;28;20172;-66
2022/05/25 06:56:45;;;;;;;13.73;13.03;;;26.00;2.20;;;;;;5015785;28;20415;-66
2022/05/25 06:59:11;;;;;;;12.60;12.10;;;26.10;2.30;;;;;;5016217;28;20427;-65
2022/05/25 07:01:38;;;;;;;12.93;12.43;;;25.80;1.00;;;;;;5015522;28;20415;-65
2022/05/25 07:04:05;;;;;;;13.00;12.50;;;24.00;1.80;;;;;;4997210;28;20796;-65
2022/05/25 07:06:31;;;;;;;12.93;12.43;;;24.70;2.40;;;;;;5001187;28;20501;-65
2022/05/25 07:08:57;;;;;;;12.50;12.03;;;23.70;1.70;;;;;;5015676;28;20494;-65
2022/05/25 07:11:23;;;;;;;13.13;12.63;;;24.10;4.00;;;;;;5003691;28;20662;-66
2022/05/25 07:13:50;;;;;;;13.20;12.70;;;25.50;2.00;;;;;;4996422;28;20183;-65
2022/05/25 07:16:17;;;;;;;13.47;12.97;;;26.50;1.00;;;;;;5009232;28;20442;-64
2022/05/25 07:18:44;;;;;;;13.70;13.20;;;27.20;1.00;;;;;;5002117;28;20546;-63
2022/05/25 07:21:25;;;;;;;13.10;12.60;;;27.70;1.00;;;;;;5013064;28;20938;-64
2022/05/25 07:23:52;;;;;;;13.20;12.60;;;28.50;1.00;;;;;;5014119;28;20422;-64
2022/05/25 07:26:19;;;;;;;13.50;13.00;;;28.90;1.00;;;;;;5012704;28;20422;-64
2022/05/25 07:28:46;;;;;;;14.50;13.90;;;29.60;1.00;;;;;;5012953;28;21007;-66
2022/05/25 07:31:21;;;;;;;13.57;12.97;;;27.90;1.00;;;;;;5002863;28;20443;-69
2022/05/25 07:33:53;;;;;;;12.80;12.33;;;28.30;1.00;;;;;;4994820;28;20438;-66
2022/05/25 07:36:20;;;;;;;13.73;13.23;;;29.40;1.00;;;;;;4995962;28;20415;-69
2022/05/25 07:38:49;;;;;;;12.87;12.23;;;27.00;1.00;;;;;;4996014;28;20439;-74
2022/05/25 07:41:17;;;;;;;13.17;12.67;;;27.60;1.00;;;;;;4995813;28;20423;-70
2022/05/25 07:43:43;;;;;;;13.07;12.53;;;27.70;1.00;;;;;;5006392;28;20426;-70
2022/05/25 07:46:09;;;;;;;13.50;13.00;;;28.40;1.00;;;;;;4996134;28;20481;-70
2022/05/25 07:48:36;;;;;;;13.80;13.00;;;29.00;1.00;;;;;;4996221;28;20486;-73
2022/05/25 07:51:03;;;;;;;13.77;13.17;;;29.90;1.00;;;;;;4995596;28;20183;-73
2022/05/25 07:56:12;;;;;;;13.80;13.30;;;30.70;1.00;;;;;;5012428;28;20801;-73
2022/05/25 07:58:38;;;;;;;14.00;13.50;;;31.10;1.00;;;;;;5014654;28;20439;-70
2022/05/25 08:01:12;;;;;;;14.73;14.03;;;31.20;1.00;;;;;;5013763;28;20249;-69
2022/05/25 08:06:23;;;;;;;14.00;13.40;;;31.90;1.00;;;;;;5013372;28;20422;-70
2022/05/25 08:08:51;;;;;;;14.00;13.40;;;32.00;1.00;;;;;;5012641;28;20474;-70
2022/05/25 08:11:20;;;;;;;13.50;13.00;;;31.90;1.00;;;;;;5012943;28;20168;-69
2022/05/25 08:13:49;;;;;;;13.80;13.30;;;32.00;1.00;;;;;;5013771;28;20418;-70
2022/05/25 08:16:15;;;;;;;14.07;13.30;;;31.60;1.00;;;;;;5013496;28;20781;-70
2022/05/25 08:18:41;;;;;;;13.83;13.33;;;31.40;1.00;;;;;;5014705;28;20460;-70
2022/05/25 08:21:06;;;;;;;14.43;13.93;;;31.40;1.00;;;;;;5014695;28;20176;-66
2022/05/25 08:23:32;;;;;;;14.00;13.40;;;31.50;1.00;;;;;;5014708;28;20180;-70
2022/05/25 08:25:57;;;;;;;14.50;13.97;;;31.40;1.00;;;;;;5014859;28;20624;-69
2022/05/25 08:28:23;;;;;;;14.13;13.63;;;31.40;1.00;;;;;;5014575;28;20212;-70
2022/05/25 08:30:49;;;;;;;13.50;13.00;;;31.10;1.00;;;;;;5014768;28;20664;-70
2022/05/25 08:33:20;;;;;;;13.57;13.03;;;31.00;1.00;;;;;;5014577;28;20172;-69
2022/05/25 08:35:46;;;;;;;13.60;13.10;;;31.00;1.00;;;;;;5013505;28;20187;-70
2022/05/25 08:38:12;;;;;;;14.53;13.70;;;30.90;1.00;;;;;;5014675;28;20994;-72
2022/05/25 08:40:39;;;;;;;13.37;12.87;;;30.90;1.00;;;;;;5014584;28;20419;-72
2022/05/25 08:43:23;;;;;;;13.67;13.17;;;30.90;1.00;;;;;;5013973;28;20422;-70
2022/05/25 08:46:03;;;;;;;12.93;12.53;;;30.90;1.00;;;;;;5012178;28;20427;-69
2022/05/25 08:48:30;;;;;;;13.73;13.20;;;30.60;1.00;;;;;;5013884;28;20478;-69
2022/05/25 08:51:25;;;;;;;13.50;13.00;;;30.10;1.00;;;;;;5014141;28;20410;-70
2022/05/25 08:53:53;;;;;;;13.77;12.83;;;29.00;1.00;;;;;;5014164;28;20476;-71
2022/05/25 08:56:38;;;;;;;13.27;12.77;;;28.20;1.00;;;;;;5014062;28;20415;-73
2022/05/25 08:59:24;;;;;;;13.60;13.10;;;27.70;1.00;;;;;;5014020;28;20462;-71
2022/05/25 09:02:12;;;;;;;13.20;12.70;;;27.00;1.00;;;;;;5013588;28;20415;-70
2022/05/25 09:05:00;;;;;;;14.30;13.70;;;26.20;1.00;;;;;;5013951;28;20407;-70
2022/05/25 09:08:03;;;;;;;13.60;13.10;;;25.50;1.00;;;;;;5013827;28;20513;-70
2022/05/25 09:10:33;;;;;;;13.20;12.70;;;24.80;1.00;;;;;;4991939;28;20455;-70
2022/05/25 09:13:09;;;;;;;12.80;12.30;;;23.80;1.00;;;;;;4991597;28;20412;-70
2022/05/25 09:18:34;;;;;;;12.80;12.30;;;23.30;1.00;;;;;;5013687;28;20493;-70
2022/05/25 09:21:05;;;;;;;13.00;12.50;;;22.90;1.00;;;;;;5013626;28;20411;-69
2022/05/25 09:23:31;;;;;;;13.33;12.83;;;22.40;1.00;;;;;;5013318;28;20413;-69
2022/05/25 09:25:58;;;;;;;13.30;12.80;;;22.20;1.00;;;;;;5013666;28;20790;-70
2022/05/25 09:28:30;;;;;;;13.00;12.50;;;21.70;1.80;;;;;;5013504;28;20813;-69
2022/05/25 09:31:00;;;;;;;13.50;13.00;;;21.30;2.50;;;;;;5013578;28;20437;-71
2022/05/25 09:33:38;;;;;;;13.10;12.70;;;21.40;2.90;;;;;;5012018;28;20527;-70
2022/05/25 09:36:21;;;;;;;12.80;12.33;;;21.50;3.00;;;;;;5013193;28;20427;-71
2022/05/25 09:39:15;;;;;;;12.33;11.93;;;21.40;2.00;;;;;;5013373;28;20469;-70
2022/05/25 09:41:43;;;;;;;12.13;11.37;;;21.30;3.30;;;;;;5013042;28;20430;-69
2022/05/25 09:44:10;;;;;;;13.07;12.47;;;21.60;3.00;;;;;;5013363;28;20446;-69
2022/05/25 09:46:41;;;;;;;12.67;12.17;;;21.90;2.50;;;;;;5013252;28;20816;-70
2022/05/25 09:49:11;;;;;;;13.30;12.60;;;22.10;2.60;;;;;;5012170;28;20477;-70
2022/05/25 09:51:43;;;;;;;13.30;12.70;;;22.20;2.20;;;;;;5012864;28;20788;-74
2022/05/25 09:54:26;;;;;;;12.70;12.30;;;22.50;2.70;;;;;;5012756;28;20497;-70
2022/05/25 09:57:12;;;;;;;12.57;12.17;;;22.70;2.10;;;;;;5011393;28;20568;-71
2022/05/25 10:00:00;;;;;;;12.67;12.10;;;23.00;1.70;;;;;;5011528;28;20562;-70
2022/05/25 10:02:49;;;;;;;13.37;12.87;;;23.20;1.00;;;;;;5012524;28;20958;-70
2022/05/25 10:05:23;;;;;;;11.87;11.47;;;23.30;1.00;;;;;;5006035;28;20430;-69
2022/05/25 10:08:03;;;;;;;12.83;12.33;;;23.60;1.00;;;;;;5012720;28;20442;-70
2022/05/25 10:10:44;;;;;;;12.43;11.93;;;23.90;1.00;;;;;;5012807;28;20415;-70
2022/05/25 10:13:17;;;;;;;13.30;12.80;;;24.30;1.00;;;;;;5012378;28;20422;-69
2022/05/25 10:15:42;;;;;;;13.40;12.80;;;24.40;1.00;;;;;;5012844;28;20426;-69
2022/05/25 10:18:14;;;;;;;13.00;12.50;;;24.50;1.00;;;;;;5011325;28;20474;-70
2022/05/25 10:20:42;;;;;;;13.57;13.07;;;24.50;1.00;;;;;;5012473;28;20418;-70
2022/05/25 10:23:22;;;;;;;13.40;13.00;;;24.40;1.00;;;;;;5012194;28;20464;-70
2022/05/25 10:25:52;;;;;;;13.07;12.60;;;24.40;1.00;;;;;;5012428;28;20477;-70
2022/05/25 10:28:32;;;;;;;12.90;12.50;;;24.40;1.00;;;;;;5012345;28;20497;-71
2022/05/25 10:37:06;;;;;;;14.20;13.60;;;24.40;1.00;;;;;;5012449;28;20494;-69
2022/05/25 10:39:39;;;;;;;13.03;12.53;;;24.70;1.00;;;;;;5012072;28;20458;-69
2022/05/25 10:42:25;;;;;;;13.60;13.10;;;24.50;1.00;;;;;;5010738;28;20524;-68
2022/05/25 10:44:57;;;;;;;13.37;12.87;;;24.60;1.00;;;;;;5012547;28;20968;-70
2022/05/25 10:47:45;;;;;;;13.57;12.97;;;24.80;1.00;;;;;;5012501;28;20455;-68
2022/05/25 10:50:20;;;;;;;13.37;12.77;;;24.50;1.00;;;;;;5012387;28;20991;-68
2022/05/25 10:52:51;;;;;;;12.90;12.40;;;24.60;1.00;;;;;;5012140;28;20411;-70
2022/05/25 10:55:17;;;;;;;13.00;12.50;;;24.70;1.00;;;;;;5012451;28;20928;-68
2022/05/25 10:58:18;;;;;;;12.80;12.30;;;24.70;1.00;;;;;;5012496;28;20497;-67
2022/05/25 11:01:06;;;;;;;12.70;12.20;;;24.20;1.00;;;;;;5012518;28;20540;-68
2022/05/25 11:03:53;;;;;;;13.30;12.80;;;24.00;1.00;;;;;;5012179;28;20787;-69
2022/05/25 11:06:47;;;;;;;13.33;12.70;;;24.20;1.00;;;;;;5012290;28;20904;-68
2022/05/25 11:09:23;;;;;;;14.20;13.50;;;24.30;1.00;;;;;;5007758;28;20415;-68
2022/05/25 11:12:20;;;;;;;12.20;11.70;;;24.20;1.00;;;;;;5010160;28;20430;-69
2022/05/25 11:14:58;;;;;;;13.93;13.13;;;24.40;1.00;;;;;;5015898;28;20509;-68
2022/05/25 11:17:43;;;;;;;13.83;13.23;;;24.40;1.00;;;;;;5016259;28;20963;-68
2022/05/25 11:20:41;;;;;;;12.60;12.10;;;24.20;1.00;;;;;;5016162;28;20469;-69
2022/05/25 11:23:36;;;;;;;13.80;13.20;;;23.90;1.00;;;;;;5016303;28;20422;-68
2022/05/25 11:26:35;;;;;;;16.50;15.50;;;24.30;1.00;;;;;;5014787;28;20407;-69
2022/05/25 11:29:32;;;;;;;13.40;12.90;;;24.30;1.00;;;;;;5015925;28;20530;-69
2022/05/25 11:32:34;;;;;;;13.20;12.70;;;24.60;1.00;;;;;;5014123;28;20422;-69
2022/05/25 11:35:30;;;;;;;12.70;12.30;;;24.00;1.00;;;;;;5015612;28;20962;-69
2022/05/25 11:38:21;;;;;;;12.50;12.00;;;24.40;1.00;;;;;;5015463;28;20933;-67
2022/05/25 11:40:51;;;;;;;12.70;12.20;;;24.70;1.00;;;;;;5015600;28;20415;-69
2022/05/25 11:43:42;;;;;;;12.70;12.20;;;24.90;1.00;;;;;;5015593;28;20403;-69
2022/05/25 11:46:22;;;;;;;12.00;11.50;;;24.90;1.00;;;;;;5015634;28;20437;-69
2022/05/25 11:49:12;;;;;;;12.50;12.00;;;24.60;1.00;;;;;;5015212;28;20473;-69
2022/05/25 11:52:03;;;;;;;12.60;12.10;;;24.60;1.00;;;;;;5015264;28;20904;-69
2022/05/25 11:54:52;;;;;;;12.47;11.77;;;24.50;1.00;;;;;;5015220;28;20411;-69
2022/05/25 11:57:17;;;;;;;11.87;11.47;;;24.00;1.00;;;;;;5015140;28;20804;-69
2022/05/25 12:00:09;;;;;;;12.73;12.23;;;23.50;1.00;;;;;;5014968;28;20512;-69
2022/05/25 12:02:53;;;;;;;13.13;12.37;;;22.70;1.00;;;;;;5014855;28;20271;-69
2022/05/25 12:05:23;;;;;;;13.00;12.50;;;22.90;1.00;;;;;;5015109;28;20889;-69
2022/05/25 12:08:26;;;;;;;12.50;12.10;;;23.00;1.00;;;;;;5014915;28;20429;-69
2022/05/25 12:11:24;;;;;;;11.93;11.43;;;23.20;1.00;;;;;;4993446;28;20987;-69
2022/05/25 12:13:52;;;;;;;12.47;12.00;;;23.50;1.00;;;;;;5013827;28;20801;-69
2022/05/25 12:16:22;;;;;;;12.53;11.90;;;23.50;1.00;;;;;;5015059;28;20498;-70
2022/05/25 12:19:14;;;;;;;11.87;11.47;;;23.70;1.00;;;;;;5014896;28;20451;-69
2022/05/25 12:21:43;;;;;;;12.40;11.93;;;23.90;1.00;;;;;;5014590;28;20842;-70
2022/05/25 12:24:17;;;;;;;13.20;12.37;;;23.80;1.00;;;;;;5014694;28;20788;-70
2022/05/25 12:26:44;;;;;;;12.10;11.70;;;24.00;1.00;;;;;;5015058;28;20826;-70
2022/05/25 12:29:15;;;;;;;12.77;12.37;;;24.10;1.00;;;;;;5014856;28;20493;-70
2022/05/25 12:31:44;;;;;;;12.93;12.53;;;24.10;1.00;;;;;;5014670;28;20403;-69
2022/05/25 12:34:13;;;;;;;13.87;13.30;;;23.80;1.00;;;;;;5015076;28;20406;-70
2022/05/25 12:36:39;;;;;;;13.80;13.17;;;23.80;1.00;;;;;;5014805;28;20437;-70
2022/05/25 12:39:05;;;;;;;13.47;12.97;;;23.50;1.00;;;;;;5015057;28;20975;-71
2022/05/25 12:41:36;;;;;;;13.43;12.93;;;23.50;1.00;;;;;;5014723;28;20507;-70
2022/05/25 12:48:30;;;;;;;13.60;13.10;;;23.50;1.00;;;;;;5013459;28;20180;-70
2022/05/25 12:49:43;;;;;;;14.47;13.87;;;22.40;1.00;;;;;;5014748;28;20457;-69
2022/05/25 12:52:27;;;;;;;13.17;12.67;;;22.20;1.00;;;;;;5014639;28;20411;-69
2022/05/25 12:55:00;;;;;;;12.90;12.40;;;22.50;1.00;;;;;;5014332;28;20407;-69
2022/05/25 12:57:42;;;;;;;12.70;12.30;;;22.80;1.00;;;;;;5014252;28;20426;-69
2022/05/25 13:00:23;;;;;;;12.47;11.97;;;23.10;1.00;;;;;;5014161;28;20526;-70
2022/05/25 13:02:50;;;;;;;13.23;12.73;;;23.30;1.00;;;;;;5013967;28;20922;-70
2022/05/25 13:05:56;;;;;;;12.80;12.30;;;23.50;1.00;;;;;;5014073;28;20485;-68
2022/05/25 13:08:49;;;;;;;14.20;13.70;;;23.50;1.00;;;;;;5013483;28;20496;-70
2022/05/25 13:11:35;;;;;;;13.20;12.70;;;23.60;1.00;;;;;;5012804;28;20469;-72
2022/05/25 13:14:22;;;;;;;13.67;13.17;;;23.90;1.00;;;;;;4991288;28;20447;-71
2022/05/25 13:16:51;;;;;;;14.00;13.50;;;24.10;1.00;;;;;;4998756;28;20575;-70
2022/05/25 13:19:41;;;;;;;14.30;13.80;;;24.50;1.00;;;;;;5002173;28;20987;-72
2022/05/25 13:22:20;;;;;;;12.47;12.07;;;24.30;1.00;;;;;;5010414;28;20411;-71
2022/05/25 13:25:14;;;;;;;13.53;13.03;;;24.10;1.00;;;;;;5000661;28;20488;-72
2022/05/25 13:27:43;;;;;;;13.20;12.70;;;23.70;1.00;;;;;;4991095;28;20447;-72
2022/05/25 13:30:46;;;;;;;13.60;13.10;;;23.10;1.00;;;;;;4993888;28;20412;-72
2022/05/25 13:33:23;;;;;;;13.60;13.10;;;23.10;1.00;;;;;;4988083;28;20446;-72
2022/05/25 13:35:52;;;;;;;13.50;13.00;;;23.10;1.00;;;;;;4998477;28;20433;-72